This is the latest recevied weather packets stored in our database for station/object IW0HP-3. If no packets are shown the sender has not sent any weather packets the latest 10 day(s).
| Time | Temp. | Humidity | Pressure | Rain* | Wind** | Luminosity | Snow |
|---|---|---|---|---|---|---|---|
| 1788615250 | 31.67° C | 37% | 1016.9 hPa | - | - | - | - |
| 1788614077 | 32.22° C | 32% | 1017.2 hPa | - | - | - | - |
| 1788612840 | 32.22° C | 34% | 1017.3 hPa | - | - | - | - |
| 1788611636 | 32.22° C | 33% | 1017.2 hPa | - | - | - | - |
| 1788610431 | 31.67° C | 32% | 1017.4 hPa | - | - | - | - |
| 1788609227 | 31.67° C | 32% | 1017.5 hPa | - | - | - | - |
| 1788608022 | 31.67° C | 33% | 1017.5 hPa | - | - | - | - |
| 1788606818 | 31.11° C | 32% | 1017.6 hPa | - | - | - | - |
| 1788605614 | 30.56° C | 31% | 1017.7 hPa | - | - | - | - |
| 1788604409 | 30.56° C | 32% | 1017.9 hPa | - | - | - | - |
| 1788603204 | 30° C | 33% | 1017.9 hPa | - | - | - | - |
| 1788602000 | 29.44° C | 34% | 1018 hPa | - | - | - | - |
| 1788600796 | 28.89° C | 35% | 1018.2 hPa | - | - | - | - |
| 1788595979 | 27.22° C | 42% | 1018.2 hPa | - | - | - | - |
| 1788594774 | 26.67° C | 44% | 1017.9 hPa | - | - | - | - |
| 1788593570 | 26.11° C | 46% | 1017.9 hPa | - | - | - | - |
| 1788592365 | 25.56° C | 47% | 1017.8 hPa | - | - | - | - |
| 1788591160 | 24.44° C | 48% | 1018 hPa | - | - | - | - |
| 1788589956 | 24.44° C | 48% | 1018.1 hPa | - | - | - | - |
| 1788588752 | 24.44° C | 48% | 1017.8 hPa | - | - | - | - |
| 1788587547 | 24.44° C | 48% | 1017.6 hPa | - | - | - | - |
| 1788586342 | 23.89° C | 48% | 1017.4 hPa | - | - | - | - |
| 1788585138 | 23.89° C | 48% | 1017.3 hPa | - | - | - | - |
| 1788583933 | 23.89° C | 48% | 1017.3 hPa | - | - | - | - |
| 1788582729 | 23.89° C | 48% | 1017.1 hPa | - | - | - | - |
* Rain since midnight (hover to see other rain measurements)
** Current wind speed in m/s (hover to see current wind gust speed)